createdAt,value
2023-04-01T00:00:33.270Z,97.44
2023-04-01T00:03:36.112Z,97.14
2023-04-01T00:06:37.671Z,98.02
2023-04-01T00:09:39.032Z,99.19
2023-04-01T00:12:41.535Z,99.41
2023-04-01T00:15:44.036Z,99.82
2023-04-01T00:18:45.495Z,100.00
2023-04-01T00:21:47.395Z,99.79
2023-04-01T00:24:48.826Z,99.67
2023-04-01T00:27:50.957Z,100.00
2023-04-01T00:30:52.370Z,100.00
2023-04-01T00:33:53.837Z,100.00
2023-04-01T00:36:55.310Z,100.00
2023-04-01T00:39:57.670Z,100.00
2023-04-01T00:43:00.064Z,100.00
2023-04-01T00:46:01.492Z,100.00
2023-04-01T00:49:03.530Z,99.70
2023-04-01T00:52:08.417Z,99.48
2023-04-01T00:55:13.583Z,99.95
2023-04-01T00:58:19.373Z,99.99
2023-04-01T01:01:24.733Z,98.99
2023-04-01T01:04:29.461Z,99.28
2023-04-01T01:07:45.873Z,100.00
2023-04-01T01:10:51.304Z,100.00
2023-04-01T01:14:24.691Z,100.00
2023-04-01T01:17:42.292Z,100.00
2023-04-01T01:21:29.289Z,100.00
2023-04-01T01:25:05.974Z,100.00
2023-04-01T01:28:27.537Z,100.00
2023-04-01T01:31:43.655Z,100.00
2023-04-01T01:34:51.091Z,98.71
2023-04-01T01:37:58.214Z,98.84
2023-04-01T01:41:02.346Z,97.86
2023-04-01T01:44:07.042Z,98.00
2023-04-01T01:47:09.147Z,98.25
2023-04-01T01:50:11.931Z,96.18
2023-04-01T01:53:14.333Z,97.03
2023-04-01T01:56:19.927Z,96.89
2023-04-01T01:59:23.021Z,97.47
2023-04-01T02:02:26.468Z,97.83
2023-04-01T02:05:31.417Z,94.89
2023-04-01T02:08:52.674Z,93.93
2023-04-01T02:11:59.882Z,93.22
2023-04-01T02:15:10.827Z,91.69
2023-04-01T02:18:14.727Z,91.15
2023-04-01T02:21:17.727Z,90.04
2023-04-01T02:24:23.225Z,90.25
2023-04-01T02:27:25.923Z,89.94
2023-04-01T02:30:34.651Z,89.71
2023-04-01T02:33:37.653Z,89.89
2023-04-01T02:36:39.521Z,89.39
2023-04-01T02:39:41.142Z,89.67
2023-04-01T02:42:42.889Z,89.06
2023-04-01T02:45:44.941Z,89.02
2023-04-01T02:48:46.333Z,89.55
2023-04-01T02:51:48.001Z,90.36
2023-04-01T02:54:49.402Z,92.66
2023-04-01T02:57:50.777Z,93.93
2023-04-01T03:00:52.222Z,94.76
2023-04-01T03:03:53.596Z,95.85
2023-04-01T03:06:56.270Z,96.46
2023-04-01T03:09:57.671Z,95.15
2023-04-01T03:12:59.059Z,96.11
2023-04-01T03:16:01.014Z,95.94
2023-04-01T03:19:03.101Z,96.36
2023-04-01T03:22:04.981Z,96.25
2023-04-01T03:25:08.518Z,97.29
2023-04-01T03:28:09.925Z,96.59
2023-04-01T03:31:12.410Z,97.61
2023-04-01T03:34:20.225Z,97.35
2023-04-01T03:37:21.709Z,97.31
2023-04-01T03:40:23.627Z,97.57
2023-04-01T03:43:25.334Z,96.84
2023-04-01T03:46:26.847Z,97.62
2023-04-01T03:49:29.602Z,98.05
2023-04-01T03:52:31.158Z,98.08
2023-04-01T03:55:32.783Z,98.74
2023-04-01T03:58:35.552Z,99.77
2023-04-01T04:01:38.047Z,99.95
2023-04-01T04:04:39.703Z,100.00
2023-04-01T04:07:41.390Z,100.00
2023-04-01T04:10:43.902Z,100.00
2023-04-01T04:13:45.453Z,100.00
2023-04-01T04:16:47.270Z,100.00
2023-04-01T04:19:48.714Z,100.00
2023-04-01T04:22:50.815Z,100.00
2023-04-01T04:25:59.955Z,100.00
2023-04-01T04:29:04.107Z,100.00
2023-04-01T04:32:06.727Z,100.00
2023-04-01T04:35:08.711Z,100.00
2023-04-01T04:38:10.232Z,100.00
2023-04-01T04:41:13.654Z,100.00
2023-04-01T04:44:16.536Z,100.00
2023-04-01T04:47:18.200Z,100.00
2023-04-01T04:50:20.291Z,100.00
2023-04-01T04:53:21.771Z,100.00
2023-04-01T04:56:26.217Z,100.00
2023-04-01T04:59:42.226Z,100.00
2023-04-01T05:02:47.992Z,100.00
2023-04-01T05:05:52.013Z,100.00
2023-04-01T05:08:53.435Z,100.00
2023-04-01T05:11:54.812Z,100.00
2023-04-01T05:14:57.215Z,100.00
2023-04-01T05:17:59.075Z,100.00
2023-04-01T05:21:00.580Z,99.50
2023-04-01T05:24:02.157Z,99.05
2023-04-01T05:27:06.120Z,98.73
2023-04-01T05:30:11.006Z,98.16
2023-04-01T05:33:28.488Z,97.79
2023-04-01T05:36:30.224Z,98.01
2023-04-01T05:39:31.895Z,97.32
2023-04-01T05:42:36.060Z,97.42
2023-04-01T05:45:38.641Z,97.59
2023-04-01T05:48:48.989Z,97.05
2023-04-01T05:51:50.591Z,96.36
2023-04-01T05:54:52.218Z,96.89
2023-04-01T05:57:53.675Z,97.71
2023-04-01T06:01:10.329Z,98.24
2023-04-01T06:04:19.043Z,97.91
2023-04-01T06:07:21.305Z,98.11
2023-04-01T06:10:32.274Z,98.59
2023-04-01T06:14:25.878Z,98.40
2023-04-01T06:17:51.481Z,99.36
2023-04-01T06:21:15.929Z,99.61
2023-04-01T06:25:04.792Z,99.93
2023-04-01T06:28:38.455Z,100.00
2023-04-01T06:32:04.496Z,100.00
2023-04-01T06:35:24.798Z,100.00
2023-04-01T06:38:44.379Z,100.00
2023-04-01T06:42:04.231Z,100.00
2023-04-01T06:45:31.087Z,100.00
2023-04-01T06:49:20.484Z,100.00
2023-04-01T06:53:13.513Z,100.00
2023-04-01T06:56:59.014Z,100.00
2023-04-01T07:00:13.070Z,100.00
2023-04-01T07:03:36.338Z,100.00
2023-04-01T07:06:47.852Z,100.00
2023-04-01T07:09:56.654Z,100.00
2023-04-01T07:13:14.578Z,100.00
2023-04-01T07:16:41.948Z,100.00
2023-04-01T07:19:55.021Z,100.00
2023-04-01T07:23:03.037Z,100.00
2023-04-01T07:26:26.069Z,100.00
2023-04-01T07:29:49.722Z,100.00
2023-04-01T07:33:16.172Z,100.00
2023-04-01T07:36:33.397Z,100.00
2023-04-01T07:40:01.123Z,100.00
2023-04-01T07:43:53.670Z,100.00
2023-04-01T07:47:16.749Z,100.00
2023-04-01T07:50:35.027Z,100.00
2023-04-01T07:54:01.266Z,100.00
2023-04-01T07:57:32.311Z,100.00
2023-04-01T08:01:00.077Z,100.00
2023-04-01T08:04:28.863Z,100.00
2023-04-01T08:07:53.274Z,100.00
2023-04-01T08:11:32.100Z,100.00
2023-04-01T08:15:33.419Z,100.00
2023-04-01T08:19:10.769Z,100.00
2023-04-01T08:22:20.989Z,100.00
2023-04-01T08:25:29.728Z,100.00
2023-04-01T08:28:45.630Z,100.00
2023-04-01T08:32:07.641Z,100.00
2023-04-01T08:35:20.223Z,100.00
2023-04-01T08:38:41.425Z,100.00
2023-04-01T08:42:12.737Z,100.00
2023-04-01T08:45:44.233Z,100.00
2023-04-01T08:49:00.837Z,100.00
2023-04-01T08:52:21.867Z,100.00
2023-04-01T08:55:32.611Z,100.00
2023-04-01T08:59:05.812Z,100.00
2023-04-01T09:02:26.312Z,100.00
2023-04-01T09:05:44.388Z,100.00
2023-04-01T09:08:58.110Z,100.00
2023-04-01T09:12:38.088Z,100.00
2023-04-01T09:16:17.525Z,100.00
2023-04-01T09:19:55.193Z,100.00
2023-04-01T09:23:17.345Z,100.00
2023-04-01T09:26:35.538Z,100.00
2023-04-01T09:30:03.600Z,100.00
2023-04-01T09:33:25.022Z,100.00
2023-04-01T09:36:46.900Z,100.00
2023-04-01T09:40:10.214Z,100.00
2023-04-01T09:43:30.947Z,100.00
2023-04-01T09:47:01.334Z,100.00
2023-04-01T09:50:22.463Z,100.00
2023-04-01T09:53:30.814Z,100.00
2023-04-01T09:57:03.699Z,100.00
2023-04-01T10:00:21.228Z,100.00
2023-04-01T10:03:57.453Z,100.00
2023-04-01T10:07:23.410Z,100.00
2023-04-01T10:10:47.260Z,100.00
2023-04-01T10:14:01.761Z,100.00
2023-04-01T10:17:33.282Z,100.00
2023-04-01T10:20:42.118Z,100.00
2023-04-01T10:23:56.819Z,100.00
2023-04-01T10:27:14.981Z,100.00
2023-04-01T10:30:49.916Z,100.00
2023-04-01T10:34:29.517Z,100.00
2023-04-01T10:37:40.906Z,100.00
2023-04-01T10:41:09.253Z,100.00
2023-04-01T10:45:10.642Z,100.00
2023-04-01T10:48:58.668Z,100.00
2023-04-01T10:52:35.896Z,100.00
2023-04-01T10:56:26.591Z,100.00
2023-04-01T11:00:17.969Z,100.00
2023-04-01T11:04:19.238Z,100.00
2023-04-01T11:08:06.763Z,100.00
2023-04-01T11:11:27.346Z,100.00
2023-04-01T11:15:09.806Z,100.00
2023-04-01T11:18:36.039Z,100.00
2023-04-01T11:22:07.720Z,100.00
2023-04-01T11:25:31.234Z,100.00
2023-04-01T11:29:10.975Z,100.00
2023-04-01T11:32:25.918Z,100.00
2023-04-01T11:35:47.375Z,100.00
2023-04-01T11:39:12.211Z,100.00
2023-04-01T11:43:37.140Z,100.00
2023-04-01T11:47:23.558Z,100.00
2023-04-01T11:50:32.793Z,100.00
2023-04-01T11:53:54.850Z,100.00
2023-04-01T11:57:40.559Z,100.00
2023-04-01T12:00:50.286Z,100.00
2023-04-01T12:04:17.995Z,100.00
2023-04-01T12:07:52.318Z,100.00
2023-04-01T12:11:05.371Z,100.00
2023-04-01T12:14:20.488Z,100.00
2023-04-01T12:17:35.302Z,100.00
2023-04-01T12:21:09.327Z,100.00
2023-04-01T12:24:37.905Z,100.00
2023-04-01T12:28:00.738Z,100.00
2023-04-01T12:31:15.414Z,100.00
2023-04-01T12:34:35.463Z,100.00
2023-04-01T12:37:45.927Z,100.00
2023-04-01T12:41:15.482Z,100.00
2023-04-01T12:44:55.308Z,100.00
2023-04-01T12:48:35.073Z,100.00
2023-04-01T12:51:58.604Z,100.00
2023-04-01T12:55:18.704Z,100.00
2023-04-01T12:58:44.030Z,100.00
2023-04-01T13:02:24.029Z,100.00
2023-04-01T13:05:58.263Z,100.00
2023-04-01T13:09:23.403Z,100.00
2023-04-01T13:12:37.128Z,100.00
2023-04-01T13:15:58.159Z,100.00
2023-04-01T13:19:05.781Z,100.00
2023-04-01T13:22:27.593Z,100.00
2023-04-01T13:26:07.058Z,100.00
2023-04-01T13:29:21.151Z,100.00
2023-04-01T13:32:44.010Z,100.00
2023-04-01T13:35:51.660Z,100.00
2023-04-01T13:39:14.739Z,100.00
2023-04-01T13:42:26.135Z,100.00
2023-04-01T13:45:32.587Z,100.00
2023-04-01T13:49:09.731Z,100.00
2023-04-01T13:52:49.619Z,100.00
2023-04-01T13:56:03.747Z,100.00
2023-04-01T13:59:37.647Z,100.00
2023-04-01T14:03:16.305Z,100.00
2023-04-01T14:06:32.241Z,100.00
2023-04-01T14:09:52.015Z,100.00
2023-04-01T14:13:19.575Z,100.00
2023-04-01T14:17:01.574Z,100.00
2023-04-01T14:20:16.293Z,100.00
2023-04-01T14:23:43.396Z,100.00
2023-04-01T14:27:00.540Z,100.00
2023-04-01T14:30:18.667Z,100.00
2023-04-01T14:33:32.231Z,100.00
2023-04-01T14:36:54.952Z,100.00
2023-04-01T14:40:27.428Z,100.00
2023-04-01T14:43:47.876Z,100.00
2023-04-01T14:47:11.037Z,100.00
2023-04-01T14:50:17.749Z,100.00
2023-04-01T14:53:29.872Z,100.00
2023-04-01T14:56:43.538Z,100.00
2023-04-01T15:00:14.318Z,100.00
2023-04-01T15:03:30.531Z,100.00
2023-04-01T15:06:46.632Z,100.00
2023-04-01T15:10:20.684Z,100.00
2023-04-01T15:13:31.300Z,100.00
2023-04-01T15:17:17.747Z,100.00
2023-04-01T15:20:49.127Z,100.00
2023-04-01T15:24:16.647Z,100.00
2023-04-01T15:27:24.804Z,100.00
2023-04-01T15:30:33.896Z,100.00
2023-04-01T15:33:35.240Z,100.00
2023-04-01T15:36:45.651Z,100.00
2023-04-01T15:39:50.063Z,100.00
2023-04-01T15:43:12.354Z,100.00
2023-04-01T15:46:42.797Z,100.00
2023-04-01T15:49:54.313Z,100.00
2023-04-01T15:53:19.356Z,100.00
2023-04-01T15:56:40.737Z,100.00
2023-04-01T16:00:11.254Z,100.00
2023-04-01T16:03:36.994Z,100.00
2023-04-01T16:06:44.278Z,100.00
2023-04-01T16:10:04.729Z,100.00
2023-04-01T16:13:43.874Z,100.00
2023-04-01T16:16:48.065Z,100.00
2023-04-01T16:20:23.623Z,97.88
2023-04-01T16:23:38.919Z,99.71
2023-04-01T16:26:50.957Z,100.00
2023-04-01T16:30:22.107Z,100.00
2023-04-01T16:33:51.014Z,100.00
2023-04-01T16:37:08.002Z,100.00
2023-04-01T16:40:21.709Z,100.00
2023-04-01T16:43:31.879Z,100.00
2023-04-01T16:46:44.968Z,100.00
2023-04-01T16:50:14.274Z,100.00
2023-04-01T16:53:30.853Z,100.00
2023-04-01T16:57:04.038Z,100.00
2023-04-01T17:00:38.055Z,100.00
2023-04-01T17:03:44.661Z,99.52
2023-04-01T17:07:06.525Z,97.81
2023-04-01T17:10:29.071Z,96.91
2023-04-01T17:13:35.155Z,94.32
2023-04-01T17:16:47.152Z,93.61
2023-04-01T17:20:07.062Z,93.70
2023-04-01T17:23:20.068Z,92.06
2023-04-01T17:26:50.319Z,90.98
2023-04-01T17:30:36.758Z,92.56
2023-04-01T17:34:12.280Z,91.69
2023-04-01T17:37:29.398Z,90.36
2023-04-01T17:40:54.775Z,91.08
2023-04-01T17:44:16.986Z,91.76
2023-04-01T17:47:35.677Z,91.70
2023-04-01T17:50:51.866Z,93.45
2023-04-01T17:54:09.767Z,93.60
2023-04-01T17:57:26.814Z,96.20
2023-04-01T18:00:53.943Z,96.77
2023-04-01T18:04:04.185Z,98.58
2023-04-01T18:07:27.082Z,100.00
2023-04-01T18:10:52.828Z,100.00
2023-04-01T18:14:22.107Z,100.00
2023-04-01T18:17:42.330Z,100.00
2023-04-01T18:21:24.404Z,100.00
2023-04-01T18:24:32.936Z,100.00
2023-04-01T18:27:38.579Z,100.00
2023-04-01T18:30:41.267Z,100.00
2023-04-01T18:33:54.537Z,100.00
2023-04-01T18:37:18.670Z,100.00
2023-04-01T18:40:27.276Z,100.00
2023-04-01T18:43:38.750Z,100.00
2023-04-01T18:47:25.038Z,100.00
2023-04-01T18:50:53.910Z,100.00
2023-04-01T18:53:58.129Z,100.00
2023-04-01T18:57:09.595Z,100.00
2023-04-01T19:00:20.200Z,100.00
2023-04-01T19:03:49.044Z,100.00
2023-04-01T19:06:55.717Z,100.00
2023-04-01T19:10:01.795Z,100.00
2023-04-01T19:13:09.230Z,100.00
2023-04-01T19:16:44.824Z,100.00
2023-04-01T19:19:52.429Z,100.00
2023-04-01T19:23:21.830Z,100.00
2023-04-01T19:26:41.441Z,100.00
2023-04-01T19:30:20.334Z,100.00
2023-04-01T19:33:50.663Z,100.00
2023-04-01T19:37:00.579Z,100.00
2023-04-01T19:40:39.162Z,100.00
2023-04-01T19:44:08.711Z,100.00
2023-04-01T19:47:31.652Z,100.00
2023-04-01T19:50:39.229Z,100.00
2023-04-01T19:54:07.359Z,100.00
2023-04-01T19:57:34.226Z,100.00
2023-04-01T20:00:41.702Z,100.00
2023-04-01T20:03:51.598Z,100.00
2023-04-01T20:07:08.242Z,100.00
2023-04-01T20:10:15.434Z,100.00
2023-04-01T20:13:45.696Z,100.00
2023-04-01T20:17:21.632Z,100.00
2023-04-01T20:20:27.598Z,100.00
2023-04-01T20:23:58.402Z,100.00
2023-04-01T20:27:08.176Z,100.00
2023-04-01T20:30:29.001Z,100.00
2023-04-01T20:34:03.966Z,100.00
2023-04-01T20:37:33.432Z,100.00
2023-04-01T20:40:41.739Z,100.00
2023-04-01T20:44:09.338Z,100.00
2023-04-01T20:47:19.805Z,100.00
2023-04-01T20:50:40.597Z,100.00
2023-04-01T20:53:57.856Z,100.00
2023-04-01T20:57:12.953Z,100.00
2023-04-01T21:00:43.030Z,100.00
2023-04-01T21:04:05.868Z,100.00
2023-04-01T21:07:25.870Z,100.00
2023-04-01T21:10:56.487Z,100.00
2023-04-01T21:14:22.115Z,100.00
2023-04-01T21:17:48.822Z,100.00
2023-04-01T21:21:08.930Z,100.00
2023-04-01T21:24:13.229Z,100.00
2023-04-01T21:27:35.087Z,100.00
2023-04-01T21:30:55.544Z,100.00
2023-04-01T21:34:04.917Z,100.00
2023-04-01T21:37:36.336Z,100.00
2023-04-01T21:41:11.268Z,100.00
2023-04-01T21:44:44.777Z,100.00
2023-04-01T21:47:46.228Z,100.00
2023-04-01T21:51:09.422Z,100.00
2023-04-01T21:54:27.384Z,100.00
2023-04-01T21:57:43.410Z,100.00
2023-04-01T22:01:03.663Z,100.00
2023-04-01T22:04:26.460Z,100.00
2023-04-01T22:07:46.520Z,100.00
2023-04-01T22:10:54.360Z,100.00
2023-04-01T22:14:04.527Z,100.00
2023-04-01T22:17:09.020Z,100.00
2023-04-01T22:20:24.057Z,100.00
2023-04-01T22:23:47.803Z,100.00
2023-04-01T22:27:07.253Z,100.00
2023-04-01T22:30:19.464Z,100.00
2023-04-01T22:33:25.439Z,100.00
2023-04-01T22:36:35.656Z,100.00
2023-04-01T22:40:09.437Z,100.00
2023-04-01T22:43:31.576Z,100.00
2023-04-01T22:46:47.846Z,100.00
2023-04-01T22:49:59.940Z,100.00
2023-04-01T22:53:28.176Z,100.00
2023-04-01T22:56:36.577Z,100.00
2023-04-01T22:59:59.966Z,100.00
2023-04-01T23:03:23.124Z,100.00
2023-04-01T23:06:29.440Z,100.00
2023-04-01T23:09:34.221Z,100.00
2023-04-01T23:12:35.996Z,100.00
2023-04-01T23:15:38.594Z,100.00
2023-04-01T23:18:57.298Z,100.00
2023-04-01T23:21:58.595Z,100.00
2023-04-01T23:25:23.766Z,100.00
2023-04-01T23:28:44.941Z,100.00
2023-04-01T23:31:48.127Z,100.00
2023-04-01T23:34:52.246Z,100.00
2023-04-01T23:37:54.101Z,100.00
2023-04-01T23:40:56.404Z,100.00
2023-04-01T23:44:17.023Z,100.00
2023-04-01T23:47:25.490Z,100.00
2023-04-01T23:50:28.074Z,100.00
2023-04-01T23:53:33.340Z,100.00
2023-04-01T23:56:39.653Z,100.00
2023-04-01T23:59:41.161Z,100.00
